Time;durP1;ratioP1;P1;durP2;ratioP2;P2;SDS_P1;SDS_P2;PMS_P1;PMS_P2;Temp;Humidity;BMP_temperature;BMP_pressure;BME280_temperature;BME280_humidity;BME280_pressure;Samples;Min_cycle;Max_cycle;Signal;HPM_P1;HPM_P2
2023/06/12 00:01:03;;;;;;;2.17;1.05;;;19.20;89.90;;;;;;5154692;27;20502;-56
2023/06/12 00:03:29;;;;;;;2.83;0.98;;;19.20;90.00;;;;;;5154792;27;20534;-56
2023/06/12 00:05:58;;;;;;;;;;;19.10;90.10;;;;;;5155592;27;20362;-57
2023/06/12 00:08:26;;;;;;;4.32;0.90;;;19.10;90.10;;;;;;5155377;27;19979;-57
2023/06/12 00:10:52;;;;;;;3.05;1.20;;;19.00;90.20;;;;;;5158328;27;20045;-56
2023/06/12 00:13:18;;;;;;;2.45;1.08;;;19.10;90.30;;;;;;5158186;27;20414;-56
2023/06/12 00:15:44;;;;;;;3.17;1.13;;;19.00;90.40;;;;;;5158042;27;20117;-56
2023/06/12 00:18:11;;;;;;;3.20;1.25;;;19.00;90.50;;;;;;5158514;27;20050;-56
2023/06/12 00:20:37;;;;;;;3.22;1.55;;;18.90;90.60;;;;;;5158315;27;20117;-56
2023/06/12 00:23:02;;;;;;;3.40;1.00;;;18.80;90.70;;;;;;5158229;27;20457;-56
2023/06/12 00:25:28;;;;;;;3.90;1.08;;;18.80;90.80;;;;;;5158183;27;20401;-56
2023/06/12 00:27:54;;;;;;;4.07;1.40;;;18.80;90.90;;;;;;5157970;27;20183;-56
2023/06/12 00:30:20;;;;;;;2.72;1.10;;;18.80;91.00;;;;;;5157805;27;20107;-56
2023/06/12 00:32:46;;;;;;;3.10;1.30;;;18.70;91.10;;;;;;5157976;27;20047;-56
2023/06/12 00:35:12;;;;;;;3.10;1.20;;;18.70;91.20;;;;;;5157723;27;20069;-56
2023/06/12 00:37:41;;;;;;;3.97;1.20;;;18.70;91.20;;;;;;5158140;27;20062;-56
2023/06/12 00:40:09;;;;;;;3.30;1.10;;;18.60;91.30;;;;;;5157888;27;20070;-56
2023/06/12 00:42:47;;;;;;;3.60;1.30;;;18.60;91.50;;;;;;5157644;27;20046;-56
2023/06/12 00:45:17;;;;;;;3.47;1.10;;;18.50;91.70;;;;;;5158148;27;20060;-56
2023/06/12 00:47:46;;;;;;;3.05;1.10;;;18.50;91.80;;;;;;5157717;27;20042;-56
2023/06/12 00:50:12;;;;;;;3.55;1.23;;;18.40;92.00;;;;;;5139148;27;20370;-56
2023/06/12 00:52:46;;;;;;;;;;;18.40;92.10;;;;;;5157912;27;20046;-56
2023/06/12 00:55:13;;;;;;;2.47;1.23;;;18.30;92.10;;;;;;5157651;27;19918;-56
2023/06/12 00:57:38;;;;;;;3.80;1.13;;;18.20;92.20;;;;;;5157547;27;20055;-56
2023/06/12 01:00:07;;;;;;;3.35;1.10;;;18.20;92.40;;;;;;5157490;27;20050;-56
2023/06/12 01:02:39;;;;;;;3.35;1.27;;;18.20;92.60;;;;;;5139112;27;20046;-56
2023/06/12 01:05:10;;;;;;;2.70;1.15;;;18.10;92.70;;;;;;5157404;27;20043;-55
2023/06/12 01:07:51;;;;;;;2.83;0.90;;;18.20;92.80;;;;;;5138982;27;20480;-56
2023/06/12 01:10:33;;;;;;;2.63;1.20;;;18.10;93.00;;;;;;5157265;27;20046;-56
2023/06/12 01:13:00;;;;;;;3.70;0.88;;;18.10;93.10;;;;;;5157128;27;20405;-56
2023/06/12 01:15:26;;;;;;;2.50;1.20;;;18.00;93.30;;;;;;5157214;27;20051;-56
2023/06/12 01:17:51;;;;;;;6.65;1.58;;;18.00;93.40;;;;;;5157014;27;20042;-56
2023/06/12 01:20:18;;;;;;;3.78;1.25;;;18.00;93.50;;;;;;5137916;27;20045;-56
2023/06/12 01:22:49;;;;;;;;;;;18.00;93.60;;;;;;5157388;27;20046;-56
2023/06/12 01:25:39;;;;;;;4.50;1.30;;;18.00;93.80;;;;;;5157282;27;19919;-56
2023/06/12 01:28:05;;;;;;;3.30;1.10;;;17.90;93.80;;;;;;5157088;27;20039;-56
2023/06/12 01:30:46;;;;;;;2.85;1.35;;;17.90;93.90;;;;;;5138600;27;20486;-56
2023/06/12 01:33:17;;;;;;;3.72;1.08;;;17.90;94.20;;;;;;5156766;27;20070;-56
2023/06/12 01:35:47;;;;;;;3.60;1.15;;;17.90;94.30;;;;;;5156821;27;20097;-56
2023/06/12 01:38:17;;;;;;;2.88;1.30;;;17.90;94.40;;;;;;5156560;27;20497;-56
2023/06/12 01:40:46;;;;;;;3.38;1.30;;;17.90;94.60;;;;;;5156684;27;20043;-56
2023/06/12 01:43:12;;;;;;;4.90;1.20;;;17.90;94.80;;;;;;5137953;27;20473;-56
2023/06/12 01:45:37;;;;;;;3.03;1.38;;;17.90;95.00;;;;;;5156670;27;20125;-56
2023/06/12 01:48:05;;;;;;;3.33;1.50;;;17.90;95.10;;;;;;5156540;27;20049;-56
2023/06/12 01:50:31;;;;;;;3.78;1.50;;;17.80;95.10;;;;;;5156656;27;20493;-56
2023/06/12 01:52:56;;;;;;;2.97;1.33;;;17.80;95.50;;;;;;5156179;27;20171;-56
2023/06/12 01:55:22;;;;;;;3.90;1.40;;;17.70;96.10;;;;;;5156163;27;20079;-56
2023/06/12 01:57:51;;;;;;;2.63;1.15;;;17.80;96.80;;;;;;5156007;27;20046;-56
2023/06/12 02:00:17;;;;;;;2.55;1.10;;;17.80;97.20;;;;;;5156245;27;20378;-56
2023/06/12 02:02:43;;;;;;;;;;;17.90;97.30;;;;;;5156983;27;20045;-56
2023/06/12 02:05:10;;;;;;;3.10;1.20;;;17.90;98.20;;;;;;5156157;27;19919;-56
2023/06/12 02:07:36;;;;;;;3.20;1.30;;;17.90;97.90;;;;;;5156080;27;20089;-56
2023/06/12 02:10:02;;;;;;;3.03;1.17;;;18.00;98.00;;;;;;5137529;27;20038;-56
2023/06/12 02:12:29;;;;;;;2.95;1.23;;;18.00;98.40;;;;;;5155752;27;20130;-56
2023/06/12 02:14:57;;;;;;;2.88;1.40;;;18.00;98.50;;;;;;5155951;27;20125;-56
2023/06/12 02:17:23;;;;;;;3.17;1.45;;;17.90;98.80;;;;;;5138249;27;20055;-56
2023/06/12 02:19:48;;;;;;;4.45;1.50;;;17.90;99.00;;;;;;5137975;27;20046;-56
2023/06/12 02:22:14;;;;;;;3.30;1.50;;;17.80;99.40;;;;;;5155768;27;20043;-56
2023/06/12 02:24:41;;;;;;;2.85;1.30;;;17.70;99.90;;;;;;5155744;27;20047;-56
2023/06/12 02:27:06;;;;;;;4.03;1.58;;;17.60;99.90;;;;;;5155560;27;20049;-56
2023/06/12 02:29:32;;;;;;;3.90;1.50;;;17.60;99.90;;;;;;5155870;27;20130;-56
2023/06/12 02:31:58;;;;;;;4.82;1.40;;;17.50;99.90;;;;;;5154924;27;20489;-56
2023/06/12 02:34:23;;;;;;;3.08;1.38;;;17.50;99.90;;;;;;5136880;27;20042;-55
2023/06/12 02:36:50;;;;;;;5.68;1.75;;;17.40;99.90;;;;;;5155696;27;20208;-56
2023/06/12 02:39:15;;;;;;;2.45;1.23;;;17.40;99.90;;;;;;5155701;27;20489;-56
2023/06/12 02:41:42;;;;;;;3.17;1.40;;;17.30;99.90;;;;;;5155564;27;20050;-56
2023/06/12 02:44:08;;;;;;;4.22;1.60;;;17.30;99.90;;;;;;5137344;27;20125;-56
2023/06/12 02:46:49;;;;;;;5.18;2.08;;;17.30;99.90;;;;;;5155547;27;20171;-56
2023/06/12 02:49:14;;;;;;;4.13;1.38;;;17.20;99.90;;;;;;5155635;27;20126;-56
2023/06/12 02:51:40;;;;;;;3.47;1.40;;;17.20;99.90;;;;;;5155297;27;20134;-56
2023/06/12 02:54:05;;;;;;;2.97;1.38;;;17.20;99.90;;;;;;5155137;27;20089;-56
2023/06/12 02:56:31;;;;;;;3.22;1.48;;;17.20;99.90;;;;;;5155404;27;20102;-56
2023/06/12 02:58:57;;;;;;;4.28;1.30;;;17.20;99.90;;;;;;5155770;27;20046;-56
2023/06/12 03:01:23;;;;;;;4.68;1.60;;;17.20;99.90;;;;;;5155339;27;20050;-56
2023/06/12 03:03:50;;;;;;;3.55;1.42;;;17.10;99.90;;;;;;5155213;27;20150;-56
2023/06/12 03:06:16;;;;;;;3.22;1.27;;;17.10;99.90;;;;;;5155214;27;20050;-56
2023/06/12 03:08:42;;;;;;;4.00;1.60;;;17.00;99.90;;;;;;5155215;27;20047;-56
2023/06/12 03:11:07;;;;;;;3.97;1.73;;;17.00;99.90;;;;;;5120004;27;20085;-56
2023/06/12 03:13:33;;;;;;;3.97;1.50;;;16.90;99.90;;;;;;5155313;27;20039;-56
2023/06/12 03:15:59;;;;;;;3.78;1.60;;;16.90;99.90;;;;;;5155188;27;20049;-56
2023/06/12 03:18:25;;;;;;;4.57;1.90;;;16.80;99.90;;;;;;5136929;27;20046;-56
2023/06/12 03:20:51;;;;;;;3.22;1.67;;;16.80;99.90;;;;;;5154943;27;20054;-56
2023/06/12 03:23:17;;;;;;;4.90;1.50;;;16.70;99.90;;;;;;5155063;27;20039;-55
2023/06/12 03:25:42;;;;;;;4.90;1.80;;;16.60;99.90;;;;;;5155008;27;20050;-56
2023/06/12 03:28:09;;;;;;;5.18;1.63;;;16.60;99.90;;;;;;5136865;27;20053;-56
2023/06/12 03:30:34;;;;;;;3.83;1.58;;;16.50;99.90;;;;;;5154942;27;20573;-56
2023/06/12 03:33:00;;;;;;;3.58;1.58;;;16.40;99.90;;;;;;5154986;27;20123;-55
2023/06/12 03:35:26;;;;;;;4.93;2.17;;;16.30;99.90;;;;;;5155149;27;20381;-55
2023/06/12 03:37:51;;;;;;;5.18;1.92;;;16.30;99.90;;;;;;5154782;27;20397;-55
2023/06/12 03:40:18;;;;;;;5.75;1.80;;;16.30;99.90;;;;;;5154944;27;20042;-55
2023/06/12 03:42:44;;;;;;;5.03;1.58;;;16.30;99.90;;;;;;5156481;27;20053;-55
2023/06/12 03:45:11;;;;;;;4.10;1.70;;;16.30;99.90;;;;;;5158861;27;20125;-56
2023/06/12 03:47:36;;;;;;;3.47;1.75;;;16.30;99.90;;;;;;5158975;27;20100;-55
2023/06/12 03:50:02;;;;;;;4.47;1.90;;;16.20;99.90;;;;;;5158819;27;20501;-55
2023/06/12 03:52:28;;;;;;;3.70;1.65;;;16.20;99.90;;;;;;5158521;27;20055;-55
2023/06/12 03:54:54;;;;;;;5.05;2.45;;;16.20;99.90;;;;;;5158928;27;20443;-56
2023/06/12 03:57:20;;;;;;;3.90;1.90;;;16.20;99.90;;;;;;5158522;27;20045;-55
2023/06/12 03:59:46;;;;;;;3.78;1.75;;;16.20;99.90;;;;;;5158569;27;20072;-55
2023/06/12 04:02:12;;;;;;;4.45;2.20;;;16.20;99.90;;;;;;5158436;27;20401;-55
2023/06/12 04:04:38;;;;;;;5.32;2.53;;;16.20;99.90;;;;;;5158535;27;20043;-55
2023/06/12 04:07:04;;;;;;;6.22;2.67;;;16.20;99.90;;;;;;5158282;27;20046;-55
2023/06/12 04:09:30;;;;;;;4.93;2.13;;;16.10;99.90;;;;;;5123238;27;20087;-55
2023/06/12 04:11:56;;;;;;;;;;;16.20;99.90;;;;;;5158880;27;20088;-55
2023/06/12 04:14:21;;;;;;;6.63;2.55;;;16.20;99.90;;;;;;5158245;27;19991;-55
2023/06/12 04:16:47;;;;;;;6.88;2.70;;;16.20;99.90;;;;;;5158348;27;20042;-56
2023/06/12 04:19:13;;;;;;;7.20;2.92;;;16.20;99.90;;;;;;5158375;27;20394;-56
2023/06/12 04:21:39;;;;;;;;;;;16.20;99.90;;;;;;5158505;27;20053;-55
2023/06/12 04:24:13;;;;;;;5.80;3.00;;;16.20;99.90;;;;;;5158218;27;20276;-55
2023/06/12 04:26:39;;;;;;;6.90;3.10;;;16.30;99.90;;;;;;5139784;27;20527;-55
2023/06/12 04:29:08;;;;;;;;;;;16.30;99.90;;;;;;5158574;27;20043;-55
2023/06/12 04:31:34;;;;;;;5.93;2.90;;;16.30;99.90;;;;;;5158204;27;19926;-55
2023/06/12 04:34:00;;;;;;;5.28;2.92;;;16.30;99.90;;;;;;5157894;27;20478;-55
2023/06/12 04:36:26;;;;;;;5.80;2.72;;;16.40;99.90;;;;;;5158309;27;20396;-56
2023/06/12 04:38:52;;;;;;;6.30;2.55;;;16.40;99.90;;;;;;5139661;27;20129;-55
2023/06/12 04:41:24;;;;;;;5.43;2.20;;;16.50;99.90;;;;;;5157865;27;20126;-55
2023/06/12 04:43:51;;;;;;;9.07;2.53;;;16.60;99.90;;;;;;5158025;27;20035;-55
2023/06/12 04:46:21;;;;;;;4.65;2.35;;;16.60;99.90;;;;;;5157759;27;20057;-55
2023/06/12 04:48:47;;;;;;;5.25;2.20;;;16.60;99.90;;;;;;5157548;27;20050;-55
2023/06/12 04:51:13;;;;;;;;;;;16.70;99.90;;;;;;5158056;27;20129;-55
2023/06/12 04:53:40;;;;;;;5.68;2.42;;;16.70;99.90;;;;;;5157050;27;20025;-55
2023/06/12 04:56:09;;;;;;;5.43;1.88;;;16.80;99.90;;;;;;5157156;27;20053;-55
2023/06/12 04:58:41;;;;;;;4.05;1.88;;;16.80;99.90;;;;;;5157591;27;20454;-55
2023/06/12 05:01:07;;;;;;;4.25;2.00;;;16.90;99.90;;;;;;5139110;27;20080;-55
2023/06/12 05:03:33;;;;;;;3.95;1.77;;;16.90;99.90;;;;;;5157167;27;20101;-55
2023/06/12 05:06:00;;;;;;;4.60;2.25;;;16.90;99.90;;;;;;5157411;27;20046;-55
2023/06/12 05:08:25;;;;;;;5.40;2.08;;;16.90;99.90;;;;;;5157309;27;20509;-55
2023/06/12 05:10:51;;;;;;;4.82;2.03;;;17.00;99.90;;;;;;5157344;27;20050;-55
2023/06/12 05:13:17;;;;;;;4.97;1.95;;;17.20;99.90;;;;;;5157148;27;20059;-54
2023/06/12 05:15:43;;;;;;;5.00;2.20;;;17.50;99.90;;;;;;5157154;27;20129;-52
2023/06/12 05:18:08;;;;;;;5.57;2.15;;;18.00;99.90;;;;;;5157470;27;20402;-53
2023/06/12 05:20:34;;;;;;;4.93;2.00;;;18.60;99.90;;;;;;5157326;27;20397;-53
2023/06/12 05:23:01;;;;;;;4.93;2.53;;;19.00;99.90;;;;;;5157044;27;20039;-52
2023/06/12 05:25:26;;;;;;;6.72;2.15;;;19.00;99.90;;;;;;5157196;27;20055;-48
2023/06/12 05:27:52;;;;;;;5.72;2.10;;;18.80;99.90;;;;;;5156728;27;20039;-47
2023/06/12 05:30:18;;;;;;;4.90;2.17;;;18.70;99.90;;;;;;5156657;27;20058;-48
2023/06/12 05:32:43;;;;;;;5.22;2.45;;;18.80;99.90;;;;;;5156626;27;20042;-48
2023/06/12 05:35:09;;;;;;;5.32;2.72;;;18.80;99.90;;;;;;5138504;27;20042;-48
2023/06/12 05:37:35;;;;;;;5.35;2.50;;;18.70;99.90;;;;;;5138375;27;20553;-50
2023/06/12 05:40:03;;;;;;;5.80;2.20;;;18.70;99.90;;;;;;5138306;27;20427;-48
2023/06/12 05:42:28;;;;;;;4.97;2.58;;;18.80;99.90;;;;;;5156720;27;20054;-48
2023/06/12 05:44:54;;;;;;;5.65;2.42;;;18.90;99.90;;;;;;5156617;27;20530;-49
2023/06/12 05:47:19;;;;;;;4.82;2.47;;;18.90;99.90;;;;;;5156281;27;20520;-48
2023/06/12 05:49:45;;;;;;;8.32;2.03;;;18.90;99.90;;;;;;5156381;27;20087;-49
2023/06/12 05:52:11;;;;;;;4.57;2.05;;;18.90;99.90;;;;;;5156459;27;20043;-48
2023/06/12 05:54:36;;;;;;;5.40;2.70;;;19.00;99.90;;;;;;5137831;27;20180;-49
2023/06/12 05:57:02;;;;;;;4.80;1.98;;;19.10;99.90;;;;;;5156416;27;20050;-48
2023/06/12 05:59:28;;;;;;;6.07;2.00;;;19.10;99.90;;;;;;5156306;27;20050;-48
2023/06/12 06:01:58;;;;;;;5.75;2.17;;;19.10;99.90;;;;;;5137897;27;20046;-48
2023/06/12 06:04:23;;;;;;;15.65;3.78;;;19.20;99.90;;;;;;5156179;27;20051;-48
2023/06/12 06:06:52;;;;;;;4.57;2.47;;;19.20;99.90;;;;;;5156413;27;20042;-48
2023/06/12 06:09:17;;;;;;;4.63;2.30;;;19.30;99.90;;;;;;5156473;27;20125;-52
2023/06/12 06:11:43;;;;;;;4.68;2.20;;;19.40;99.90;;;;;;5156066;27;20082;-54
2023/06/12 06:14:09;;;;;;;5.40;2.30;;;19.40;99.90;;;;;;5155803;27;20043;-54
2023/06/12 06:16:34;;;;;;;5.18;2.35;;;19.40;99.90;;;;;;5155974;27;20047;-47
2023/06/12 06:19:00;;;;;;;7.57;3.25;;;19.50;99.90;;;;;;5155934;27;20046;-46
2023/06/12 06:21:26;;;;;;;19.33;11.23;;;19.60;99.90;;;;;;5155848;27;20049;-49
2023/06/12 06:23:52;;;;;;;9.13;4.45;;;19.60;99.90;;;;;;5155785;27;20145;-47
2023/06/12 06:26:17;;;;;;;9.50;4.72;;;19.70;99.90;;;;;;5155785;27;20038;-47
2023/06/12 06:28:43;;;;;;;9.13;4.53;;;19.80;99.90;;;;;;5155641;27;20537;-48
2023/06/12 06:31:10;;;;;;;8.27;4.15;;;19.80;99.90;;;;;;5155437;27;20057;-51
2023/06/12 06:33:36;;;;;;;6.43;3.60;;;19.90;99.90;;;;;;5156207;27;20049;-49
2023/06/12 06:36:02;;;;;;;;;;;19.90;99.90;;;;;;5137585;27;20111;-48
2023/06/12 06:38:29;;;;;;;7.45;3.92;;;20.00;99.90;;;;;;5155374;27;19923;-49
2023/06/12 06:40:55;;;;;;;7.80;3.80;;;20.10;99.90;;;;;;5155336;27;20420;-48
2023/06/12 06:43:21;;;;;;;6.38;3.60;;;20.10;99.90;;;;;;5155520;27;20117;-48
2023/06/12 06:45:46;;;;;;;8.05;4.00;;;20.20;99.90;;;;;;5155585;27;20538;-48
2023/06/12 06:48:13;;;;;;;8.63;4.60;;;20.30;99.90;;;;;;5137644;27;20481;-48
2023/06/12 06:50:39;;;;;;;;;;;20.50;99.90;;;;;;5156198;27;20043;-50
2023/06/12 06:53:04;;;;;;;9.07;3.72;;;20.60;99.90;;;;;;5155315;27;19923;-52
2023/06/12 06:55:30;;;;;;;8.50;4.07;;;20.70;99.90;;;;;;5155446;27;20050;-48
2023/06/12 06:57:56;;;;;;;7.60;3.30;;;20.80;99.90;;;;;;5155468;27;20038;-48
2023/06/12 07:00:22;;;;;;;9.73;4.30;;;20.80;99.90;;;;;;5136884;27;20484;-48
2023/06/12 07:02:51;;;;;;;7.75;3.35;;;20.80;99.90;;;;;;5155398;27;20047;-47
2023/06/12 07:05:17;;;;;;;8.20;3.55;;;20.90;99.90;;;;;;5155217;27;20039;-48
2023/06/12 07:07:44;;;;;;;5.97;3.08;;;20.90;99.90;;;;;;5137283;27;20179;-48
2023/06/12 07:10:10;;;;;;;5.60;2.80;;;21.00;99.90;;;;;;5155396;27;20043;-50
2023/06/12 07:12:36;;;;;;;6.65;2.90;;;21.30;99.90;;;;;;5155173;27;20520;-48
2023/06/12 07:15:03;;;;;;;5.28;2.88;;;21.60;99.90;;;;;;5155114;27;20034;-49
2023/06/12 07:17:29;;;;;;;5.82;2.67;;;21.70;99.90;;;;;;5156341;27;20053;-48
2023/06/12 07:19:55;;;;;;;;;;;21.90;99.90;;;;;;5141669;27;20043;-48
2023/06/12 07:22:21;;;;;;;4.85;2.10;;;21.90;99.90;;;;;;5159527;27;20362;-49
2023/06/12 07:24:46;;;;;;;6.50;3.25;;;22.10;99.90;;;;;;5140774;27;20469;-50
2023/06/12 07:27:12;;;;;;;6.70;3.15;;;22.50;99.90;;;;;;5159035;27;20047;-51
2023/06/12 07:29:37;;;;;;;7.20;3.33;;;22.90;99.90;;;;;;5159334;27;20130;-50
2023/06/12 07:32:04;;;;;;;5.07;2.30;;;23.00;99.90;;;;;;5159169;27;20121;-52
2023/06/12 07:34:29;;;;;;;4.63;2.33;;;22.90;99.90;;;;;;5158898;27;20082;-47
2023/06/12 07:36:56;;;;;;;4.97;2.38;;;22.70;99.90;;;;;;5159387;27;20446;-48
2023/06/12 07:39:21;;;;;;;6.55;3.00;;;22.60;99.90;;;;;;5159114;27;20051;-50
2023/06/12 07:41:47;;;;;;;6.05;2.70;;;22.50;99.90;;;;;;5123772;27;20130;-49
2023/06/12 07:44:13;;;;;;;5.85;3.00;;;22.40;99.90;;;;;;5159534;27;20415;-49
2023/06/12 07:46:42;;;;;;;6.18;2.97;;;22.30;99.90;;;;;;5158884;27;20564;-52
2023/06/12 07:49:08;;;;;;;5.80;2.33;;;22.20;99.90;;;;;;5158688;27;20557;-51
2023/06/12 07:51:34;;;;;;;5.10;2.70;;;22.20;99.90;;;;;;5158762;27;20077;-49
2023/06/12 07:53:59;;;;;;;8.15;2.90;;;22.10;99.90;;;;;;5140192;27;20081;-49
2023/06/12 07:56:25;;;;;;;5.43;3.00;;;22.10;99.90;;;;;;5158644;27;20047;-49
2023/06/12 07:58:52;;;;;;;5.53;2.58;;;22.10;99.90;;;;;;5158735;27;20039;-51
2023/06/12 08:01:18;;;;;;;5.28;2.60;;;22.00;99.90;;;;;;5158671;27;20047;-49
2023/06/12 08:03:43;;;;;;;5.03;2.58;;;22.10;99.90;;;;;;5140198;27;20140;-49
2023/06/12 08:06:11;;;;;;;5.13;2.63;;;22.10;99.90;;;;;;5140259;27;20047;-48
2023/06/12 08:08:44;;;;;;;5.20;2.55;;;22.10;99.90;;;;;;5158579;27;20076;-49
2023/06/12 08:11:10;;;;;;;5.60;2.58;;;22.20;99.90;;;;;;5158215;27;20047;-50
2023/06/12 08:13:36;;;;;;;5.35;2.72;;;22.20;99.90;;;;;;5158151;27;20549;-48
2023/06/12 08:16:03;;;;;;;6.95;2.80;;;22.20;99.90;;;;;;5158428;27;20130;-49
2023/06/12 08:18:29;;;;;;;5.30;2.95;;;22.20;99.90;;;;;;5140083;27;20094;-52
2023/06/12 08:20:54;;;;;;;8.15;3.05;;;22.20;99.90;;;;;;5158308;27;20112;-52
2023/06/12 08:23:20;;;;;;;4.75;2.50;;;22.20;99.90;;;;;;5158180;27;20045;-50
2023/06/12 08:25:46;;;;;;;4.68;2.67;;;22.20;99.90;;;;;;5157900;27;20134;-50
2023/06/12 08:28:11;;;;;;;6.03;2.65;;;22.20;99.90;;;;;;5157896;27;20081;-51
2023/06/12 08:30:37;;;;;;;7.00;2.63;;;22.20;99.90;;;;;;5157033;27;20043;-51
2023/06/12 08:33:03;;;;;;;5.10;2.80;;;22.20;99.90;;;;;;5157931;27;20034;-50
2023/06/12 08:35:29;;;;;;;5.55;2.90;;;22.20;99.90;;;;;;5158023;27;20064;-49
2023/06/12 08:37:56;;;;;;;6.25;3.20;;;22.20;99.90;;;;;;5157891;27;20065;-48
2023/06/12 08:40:22;;;;;;;5.85;2.90;;;22.20;99.90;;;;;;5157616;27;20057;-48
2023/06/12 08:42:51;;;;;;;6.55;3.20;;;22.20;99.90;;;;;;5157861;27;20473;-49
2023/06/12 08:45:19;;;;;;;8.32;3.00;;;22.20;99.90;;;;;;5157745;27;20042;-49
2023/06/12 08:47:50;;;;;;;12.45;7.07;;;22.20;99.90;;;;;;5157784;27;20054;-48
2023/06/12 08:50:17;;;;;;;6.10;3.30;;;22.20;99.90;;;;;;5157885;27;20066;-48
2023/06/12 08:52:44;;;;;;;8.85;3.70;;;22.30;99.90;;;;;;5157563;27;20061;-48
2023/06/12 08:55:13;;;;;;;5.90;2.90;;;22.30;99.90;;;;;;5157513;27;20043;-49
2023/06/12 08:57:39;;;;;;;8.00;2.85;;;22.30;99.90;;;;;;5157672;27;20054;-49
2023/06/12 09:00:11;;;;;;;6.15;3.00;;;22.30;99.90;;;;;;5139444;27;20482;-49
2023/06/12 09:02:42;;;;;;;6.85;3.47;;;22.30;99.90;;;;;;5157651;27;20046;-50
2023/06/12 09:05:17;;;;;;;6.60;3.38;;;22.40;99.90;;;;;;5138949;27;20508;-50
2023/06/12 09:07:45;;;;;;;10.18;3.08;;;22.40;99.90;;;;;;5139182;27;20050;-48
2023/06/12 09:10:11;;;;;;;6.85;3.42;;;22.40;99.90;;;;;;5157294;27;20050;-48
2023/06/12 09:12:37;;;;;;;7.45;3.65;;;22.30;99.90;;;;;;5157204;27;20189;-47
2023/06/12 09:15:03;;;;;;;5.22;2.83;;;22.40;99.90;;;;;;5157456;27;20034;-47
2023/06/12 09:17:29;;;;;;;5.43;3.05;;;22.40;99.90;;;;;;5157167;27;20046;-47
2023/06/12 09:19:55;;;;;;;7.15;4.03;;;22.50;99.90;;;;;;5157037;27;20096;-48
2023/06/12 09:22:21;;;;;;;6.35;3.35;;;22.50;99.90;;;;;;5157068;27;20074;-47
2023/06/12 09:24:47;;;;;;;4.72;2.70;;;22.60;99.90;;;;;;5157031;27;20031;-48
2023/06/12 09:27:14;;;;;;;5.82;2.80;;;22.60;99.90;;;;;;5157033;27;20047;-48
2023/06/12 09:29:40;;;;;;;5.97;2.78;;;22.70;99.90;;;;;;5156847;27;20050;-48
2023/06/12 09:32:11;;;;;;;6.63;2.92;;;22.70;99.90;;;;;;5156693;27;20074;-47
2023/06/12 09:34:37;;;;;;;4.95;2.72;;;22.70;99.90;;;;;;5156606;27;20508;-49
2023/06/12 09:37:09;;;;;;;4.88;2.67;;;22.80;99.90;;;;;;5156990;27;20055;-48
2023/06/12 09:39:35;;;;;;;6.47;2.95;;;22.80;99.90;;;;;;5156852;27;20055;-49
2023/06/12 09:42:01;;;;;;;5.00;2.55;;;22.80;99.90;;;;;;5156400;27;20378;-48
2023/06/12 09:44:29;;;;;;;7.15;3.33;;;22.80;99.90;;;;;;5138148;27;20496;-48
2023/06/12 09:47:03;;;;;;;6.47;3.08;;;23.00;99.90;;;;;;5156375;27;20046;-48
2023/06/12 09:49:30;;;;;;;6.38;3.40;;;23.00;99.90;;;;;;5138924;27;20051;-48
2023/06/12 09:52:03;;;;;;;5.50;3.00;;;23.10;99.90;;;;;;5138322;27;20073;-48
2023/06/12 09:54:31;;;;;;;5.75;2.95;;;23.10;99.90;;;;;;5156438;27;20038;-56
2023/06/12 09:56:59;;;;;;;6.38;3.13;;;23.20;99.90;;;;;;5138112;27;20085;-55
2023/06/12 09:59:28;;;;;;;5.90;3.03;;;23.20;99.90;;;;;;5156170;27;20047;-56
2023/06/12 10:02:15;;;;;;;8.48;3.20;;;23.20;99.80;;;;;;5156049;27;20129;-54
2023/06/12 10:04:52;;;;;;;5.90;2.60;;;23.30;99.80;;;;;;5156205;27;20039;-54
2023/06/12 10:07:24;;;;;;;;;;;23.30;99.90;;;;;;5138575;27;20447;-54
2023/06/12 10:09:50;;;;;;;6.85;2.85;;;23.40;99.70;;;;;;5156088;27;19919;-53
2023/06/12 10:12:16;;;;;;;;;;;23.40;99.90;;;;;;5156241;27;20508;-53
2023/06/12 10:14:42;;;;;;;7.03;3.42;;;23.50;99.90;;;;;;5156006;27;19919;-55
2023/06/12 10:17:10;;;;;;;5.65;2.80;;;23.50;99.70;;;;;;5155997;27;20099;-55
2023/06/12 10:19:36;;;;;;;5.30;2.67;;;23.60;99.40;;;;;;5156162;27;20038;-54
2023/06/12 10:22:06;;;;;;;6.10;2.95;;;23.70;99.10;;;;;;5155944;27;20049;-54
2023/06/12 10:24:33;;;;;;;8.32;4.18;;;23.80;98.80;;;;;;5155833;27;20095;-55
2023/06/12 10:27:00;;;;;;;7.10;3.60;;;24.00;98.50;;;;;;5155858;27;20043;-54
2023/06/12 10:29:26;;;;;;;7.60;3.28;;;24.10;98.40;;;;;;5155910;27;20054;-55
2023/06/12 10:31:52;;;;;;;5.25;2.92;;;24.20;98.10;;;;;;5155742;27;20054;-55
2023/06/12 10:34:18;;;;;;;;;;;24.40;97.80;;;;;;5156011;27;20039;-55
2023/06/12 10:36:46;;;;;;;4.47;2.53;;;24.60;97.10;;;;;;5156152;27;20010;-55
2023/06/12 10:39:23;;;;;;;6.93;2.70;;;24.70;96.90;;;;;;5155347;27;20432;-55
2023/06/12 10:41:55;;;;;;;6.30;2.60;;;24.80;96.70;;;;;;5155950;27;20050;-55
2023/06/12 10:44:41;;;;;;;6.57;3.35;;;25.00;96.30;;;;;;5137356;27;20042;-55
2023/06/12 10:47:23;;;;;;;4.65;2.47;;;25.20;96.10;;;;;;5155612;27;20034;-55
2023/06/12 10:50:03;;;;;;;6.03;3.05;;;25.30;95.50;;;;;;5155685;27;20050;-55
2023/06/12 10:52:29;;;;;;;5.97;2.63;;;25.50;95.10;;;;;;5155186;27;20370;-55
2023/06/12 10:55:16;;;;;;;;;;;25.70;94.90;;;;;;5155745;27;20050;-56
2023/06/12 10:57:59;;;;;;;5.38;2.97;;;25.90;94.30;;;;;;5155375;27;20301;-55
2023/06/12 11:00:31;;;;;;;4.55;2.58;;;26.10;94.00;;;;;;5137158;27;20054;-55
2023/06/12 11:03:07;;;;;;;4.50;2.53;;;26.20;93.60;;;;;;5155713;27;20133;-56
2023/06/12 11:05:34;;;;;;;6.07;2.70;;;26.30;93.10;;;;;;5155466;27;20458;-56
2023/06/12 11:08:06;;;;;;;4.85;2.70;;;26.50;93.20;;;;;;5155338;27;20493;-56
2023/06/12 11:10:33;;;;;;;5.75;2.60;;;26.60;92.20;;;;;;5155277;27;20086;-55
2023/06/12 11:12:59;;;;;;;4.80;2.65;;;26.80;91.90;;;;;;5155185;27;20090;-55
2023/06/12 11:15:25;;;;;;;5.57;2.85;;;26.90;91.60;;;;;;5155314;27;20546;-56
2023/06/12 11:17:51;;;;;;;5.32;2.70;;;27.00;91.20;;;;;;5155041;27;20374;-55
2023/06/12 11:20:19;;;;;;;5.22;2.83;;;27.10;90.80;;;;;;5155075;27;20566;-56
2023/06/12 11:22:56;;;;;;;5.75;2.63;;;27.30;90.20;;;;;;5155116;27;20089;-56
2023/06/12 11:25:22;;;;;;;4.85;2.80;;;27.40;90.10;;;;;;5137981;27;20042;-56
2023/06/12 11:27:48;;;;;;;5.85;2.75;;;27.50;89.00;;;;;;5155141;27;20099;-55
2023/06/12 11:30:15;;;;;;;6.35;2.85;;;27.60;88.50;;;;;;5119954;27;20435;-56
2023/06/12 11:32:42;;;;;;;5.88;2.90;;;27.80;88.30;;;;;;5154943;27;20043;-49
2023/06/12 11:35:09;;;;;;;5.47;2.75;;;27.90;87.80;;;;;;5154455;27;20623;-53
2023/06/12 11:37:38;;;;;;;5.53;2.70;;;28.10;87.60;;;;;;5154810;27;20051;-52
2023/06/12 11:40:09;;;;;;;5.55;2.88;;;28.20;86.60;;;;;;5155506;27;20047;-48
2023/06/12 11:42:43;;;;;;;6.45;3.25;;;28.30;86.30;;;;;;5137021;27;20046;-51
2023/06/12 11:45:14;;;;;;;4.50;2.90;;;28.30;85.20;;;;;;5154826;27;20556;-53
2023/06/12 11:47:44;;;;;;;5.30;3.00;;;28.40;83.90;;;;;;5154824;27;20050;-55
2023/06/12 11:50:17;;;;;;;4.45;2.50;;;28.40;82.90;;;;;;5154798;27;20043;-53
2023/06/12 11:52:45;;;;;;;4.53;2.50;;;28.50;82.00;;;;;;5136731;27;20473;-52
2023/06/12 11:55:12;;;;;;;5.85;2.97;;;28.60;81.80;;;;;;5154742;27;20114;-55
2023/06/12 11:57:38;;;;;;;6.30;2.50;;;28.70;81.40;;;;;;5154941;27;20046;-55
2023/06/12 12:00:16;;;;;;;5.80;2.60;;;28.70;80.90;;;;;;5154878;27;20049;-55
2023/06/12 12:02:46;;;;;;;6.95;2.80;;;28.80;80.20;;;;;;5154723;27;20050;-55
2023/06/12 12:05:12;;;;;;;6.05;2.90;;;28.90;79.50;;;;;;5158482;27;20130;-55
2023/06/12 12:07:39;;;;;;;5.95;2.90;;;28.90;78.30;;;;;;5158592;27;20049;-55
2023/06/12 12:10:14;;;;;;;5.22;2.83;;;28.90;77.90;;;;;;5158492;27;20044;-55
2023/06/12 12:12:42;;;;;;;4.95;2.83;;;29.00;78.20;;;;;;5158389;27;20043;-55
2023/06/12 12:15:10;;;;;;;6.30;2.60;;;29.10;78.30;;;;;;5158132;27;20081;-55
2023/06/12 12:17:37;;;;;;;5.10;2.75;;;29.20;77.60;;;;;;5158493;27;20394;-48
2023/06/12 12:20:10;;;;;;;4.75;2.70;;;29.20;76.40;;;;;;5158372;27;20126;-54
2023/06/12 12:22:40;;;;;;;4.75;2.90;;;29.20;75.90;;;;;;5158372;27;20046;-54
2023/06/12 12:25:07;;;;;;;5.13;2.45;;;29.30;75.10;;;;;;5158280;27;20041;-55
2023/06/12 12:27:34;;;;;;;7.13;3.40;;;29.40;74.60;;;;;;5158123;27;20042;-56
2023/06/12 12:30:01;;;;;;;5.60;2.97;;;29.40;73.90;;;;;;5158352;27;20043;-55
2023/06/12 12:32:26;;;;;;;7.28;3.00;;;29.50;74.00;;;;;;5139642;27;20043;-55
2023/06/12 12:34:52;;;;;;;5.40;2.90;;;29.60;73.50;;;;;;5158053;27;20035;-55
2023/06/12 12:37:18;;;;;;;4.57;2.70;;;29.60;72.60;;;;;;5139385;27;20527;-55
2023/06/12 12:39:43;;;;;;;5.60;3.10;;;29.60;72.70;;;;;;5157917;27;20099;-55
2023/06/12 12:42:10;;;;;;;6.05;3.30;;;29.70;72.10;;;;;;5157693;27;20431;-55
2023/06/12 12:44:35;;;;;;;4.82;2.65;;;29.70;71.90;;;;;;5157918;27;20540;-56
2023/06/12 12:47:01;;;;;;;6.72;3.10;;;29.70;72.00;;;;;;5139248;27;20074;-56
2023/06/12 12:49:27;;;;;;;5.50;3.00;;;29.70;72.20;;;;;;5157717;27;20046;-55
2023/06/12 12:51:52;;;;;;;5.78;3.20;;;29.80;71.60;;;;;;5158035;27;20047;-56